Leyte Spirit — C6CG6 — position and weather

sailwx.info

Track history (hours):
 
Tides and Currents Weather Stations Pressure Air Temp Water Temp Dewpoint Dewpoint Depression Visibility Wind Speed Wind Dir Waves Ship Positions

Leyte Spirit

Last reported at 2017-Dec-09 20:17 UTC. Time now 2017-Dec-16 19:08 UTC.
Position N 09°32' W 079°50'.

Length 243 m; draft 7.9 m.

Type: Tanker. MMSI: 311000466.

Date/timePositionNaut miles runAvg speedWind from/ knotsBaromVisibWave heightAir tempDewpointWater temp
2017-Dec-09 20:17N 09°32' W 079°50'410.0
2017-Dec-09 19:55N 09°29' W 079°52'410.1
2017-Dec-09 19:29N 09°25' W 079°55'5 9.6
2017-Dec-09 19:01N 09°21' W 079°55'4 7.4
2017-Dec-09 18:31N 09°17' W 079°55'1 1.4
2017-Dec-09 18:01N 09°16' W 079°55'0 0.5
2017-Dec-09 17:30N 09°16' W 079°55'0 0.1
2017-Dec-09 17:00N 09°16' W 079°55'0 0.5
2017-Dec-09 16:31N 09°16' W 079°55'0 0.7
2017-Dec-09 16:00N 09°16' W 079°55'1 1.1
2017-Dec-09 15:30N 09°15' W 079°55'2 4.1
2017-Dec-09 15:00N 09°13' W 079°55'25 4.9
2017-Dec-09 10:00N 08°59' W 079°35'0 0.2
2017-Dec-09 09:25N 08°59' W 079°35'0 0.5
2017-Dec-09 09:00N 08°58' W 079°35'0 0.8
2017-Dec-09 08:25N 08°58' W 079°35'2 5.7
2017-Dec-09 08:00N 08°56' W 079°33'  
Track history (hours):
 
Tides and Currents Weather Stations Pressure Air Temp Water Temp Dewpoint Dewpoint Depression Visibility Wind Speed Wind Dir Waves Ship Positions

Leyte Spirit

Last reported at 2017-Dec-09 20:17 UTC. Time now 2017-Dec-16 19:08 UTC.
Position N 09°32' W 079°50'.

Length 243 m; draft 7.9 m.

Type: Tanker. MMSI: 311000466.

Date/timePositionNaut miles runAvg speedWind from/ knotsBaromVisibWave heightAir tempDewpointWater temp
2017-Dec-09 20:17N 09°32' W 079°50'410.0
2017-Dec-09 19:55N 09°29' W 079°52'410.1
2017-Dec-09 19:29N 09°25' W 079°55'5 9.6
2017-Dec-09 19:01N 09°21' W 079°55'4 7.4
2017-Dec-09 18:31N 09°17' W 079°55'1 1.4
2017-Dec-09 18:01N 09°16' W 079°55'0 0.5
2017-Dec-09 17:30N 09°16' W 079°55'0 0.1
2017-Dec-09 17:00N 09°16' W 079°55'0 0.5
2017-Dec-09 16:31N 09°16' W 079°55'0 0.7
2017-Dec-09 16:00N 09°16' W 079°55'1 1.1
2017-Dec-09 15:30N 09°15' W 079°55'2 4.1
2017-Dec-09 15:00N 09°13' W 079°55'25 4.9
2017-Dec-09 10:00N 08°59' W 079°35'0 0.2
2017-Dec-09 09:25N 08°59' W 079°35'0 0.5
2017-Dec-09 09:00N 08°58' W 079°35'0 0.8
2017-Dec-09 08:25N 08°58' W 079°35'2 5.7
2017-Dec-09 08:00N 08°56' W 079°33'  

Dump ship's entire track history